createdAt,value
2022-12-18T00:01:00.724Z,100964.63
2022-12-18T00:03:28.120Z,100966.44
2022-12-18T00:05:59.022Z,100959.25
2022-12-18T00:08:25.833Z,100954.03
2022-12-18T00:10:52.695Z,100955.78
2022-12-18T00:13:21.089Z,100953.13
2022-12-18T00:15:47.662Z,100962.91
2022-12-18T00:18:18.937Z,100954.88
2022-12-18T00:20:47.644Z,100968.25
2022-12-18T00:23:14.137Z,100969.06
2022-12-18T00:25:41.489Z,100962.03
2022-12-18T00:28:08.032Z,100957.56
2022-12-18T00:30:35.985Z,100956.59
2022-12-18T00:33:04.805Z,100969.09
2022-12-18T00:35:32.644Z,100964.63
2022-12-18T00:37:59.216Z,100958.47
2022-12-18T00:40:25.696Z,100958.41
2022-12-18T00:42:53.673Z,100948.69
2022-12-18T00:45:20.166Z,100940.66
2022-12-18T00:47:48.135Z,100939.75
2022-12-18T00:50:14.772Z,100939.75
2022-12-18T00:52:41.665Z,100934.38
2022-12-18T00:55:08.445Z,100946.88
2022-12-18T00:57:36.317Z,100960.25
2022-12-18T01:00:03.024Z,100960.22
2022-12-18T01:02:30.656Z,100960.22
2022-12-18T01:04:58.692Z,100955.78
2022-12-18T01:07:29.383Z,100946.88
2022-12-18T01:09:55.856Z,100958.50
2022-12-18T01:12:24.215Z,100954.91
2022-12-18T01:14:50.728Z,100959.31
2022-12-18T01:17:17.811Z,100957.53
2022-12-18T01:19:46.857Z,100950.44
2022-12-18T01:22:19.052Z,100953.09
2022-12-18T01:24:45.846Z,100953.09
2022-12-18T01:27:12.827Z,100963.75
2022-12-18T01:29:42.771Z,100962.81
2022-12-18T01:32:12.627Z,100954.88
2022-12-18T01:34:39.596Z,100962.94
2022-12-18T01:37:06.372Z,100959.38
2022-12-18T01:39:37.424Z,100963.78
2022-12-18T01:42:16.765Z,100957.59
2022-12-18T01:45:02.559Z,100951.34
2022-12-18T01:47:34.095Z,100950.47
2022-12-18T01:50:03.182Z,100946.91
2022-12-18T01:52:35.650Z,100932.66
2022-12-18T01:55:08.498Z,100940.69
2022-12-18T01:57:36.349Z,100938.88
2022-12-18T02:00:09.095Z,100945.13
2022-12-18T02:02:37.194Z,100944.22
2022-12-18T02:05:04.630Z,100949.56
2022-12-18T02:07:44.924Z,100941.53
2022-12-18T02:10:20.876Z,100956.66
2022-12-18T02:12:57.629Z,100954.91
2022-12-18T02:15:32.313Z,100946.00
2022-12-18T02:18:10.114Z,100946.00
2022-12-18T02:20:55.648Z,100937.09
2022-12-18T02:23:41.795Z,100946.03
2022-12-18T02:26:34.742Z,100946.88
2022-12-18T02:29:06.046Z,100943.34
2022-12-18T02:34:10.058Z,100929.13
2022-12-18T02:36:41.079Z,100918.41
2022-12-18T02:39:14.815Z,100929.09
2022-12-18T02:41:44.081Z,100925.56
2022-12-18T02:44:12.381Z,100920.22
2022-12-18T02:46:41.772Z,100922.94
2022-12-18T02:49:20.436Z,100927.34
2022-12-18T02:51:54.125Z,100927.38
2022-12-18T02:54:35.671Z,100934.50
2022-12-18T02:57:10.754Z,100934.47
2022-12-18T02:59:46.442Z,100930.03
2022-12-18T03:02:22.530Z,100929.16
2022-12-18T03:04:57.823Z,100932.69
2022-12-18T03:07:29.175Z,100929.16
2022-12-18T03:09:57.335Z,100924.69
2022-12-18T03:12:32.184Z,100931.84
2022-12-18T03:15:05.362Z,100932.69
2022-12-18T03:17:35.065Z,100922.06
2022-12-18T03:20:10.703Z,100924.72
2022-12-18T03:22:41.157Z,100910.47
2022-12-18T03:25:12.544Z,100916.72
2022-12-18T03:27:47.215Z,100919.41
2022-12-18T03:30:16.707Z,100911.38
2022-12-18T03:32:51.045Z,100910.47
2022-12-18T03:35:27.463Z,100905.13
2022-12-18T03:37:57.019Z,100910.47
2022-12-18T03:40:31.198Z,100913.13
2022-12-18T03:43:11.402Z,100911.38
2022-12-18T03:45:41.839Z,100918.47
2022-12-18T03:48:14.005Z,100909.59
2022-12-18T03:50:49.642Z,100917.63
2022-12-18T03:53:26.956Z,100912.25
2022-12-18T03:55:59.299Z,100904.28
2022-12-18T03:58:30.870Z,100908.72
2022-12-18T04:01:02.633Z,100900.72
2022-12-18T04:03:37.888Z,100905.16
2022-12-18T04:06:06.647Z,100903.38
2022-12-18T04:08:35.054Z,100898.91
2022-12-18T04:11:02.276Z,100898.94
2022-12-18T04:13:34.997Z,100890.91
2022-12-18T04:16:02.396Z,100892.69
2022-12-18T04:18:28.965Z,100892.69
2022-12-18T04:20:56.771Z,100882.94
2022-12-18T04:23:23.378Z,100888.28
2022-12-18T04:25:50.258Z,100883.78
2022-12-18T04:28:18.830Z,100882.91
2022-12-18T04:30:50.120Z,100883.78
2022-12-18T04:33:19.840Z,100884.69
2022-12-18T04:35:46.554Z,100880.25
2022-12-18T04:38:13.502Z,100887.38
2022-12-18T04:40:40.101Z,100880.25
2022-12-18T04:43:11.985Z,100878.47
2022-12-18T04:45:39.386Z,100882.03
2022-12-18T04:48:09.477Z,100878.44
2022-12-18T04:50:36.598Z,100874.00
2022-12-18T04:53:05.045Z,100874.00
2022-12-18T04:55:31.550Z,100875.81
2022-12-18T04:57:58.029Z,100875.78
2022-12-18T05:00:28.705Z,100875.81
2022-12-18T05:02:55.393Z,100875.78
2022-12-18T05:05:23.543Z,100873.13
2022-12-18T05:07:53.899Z,100866.00
2022-12-18T05:10:20.605Z,100858.88
2022-12-18T05:12:47.518Z,100865.13
2022-12-18T05:15:18.110Z,100862.41
2022-12-18T05:17:44.966Z,100852.63
2022-12-18T05:20:16.012Z,100857.09
2022-12-18T05:22:46.254Z,100861.53
2022-12-18T05:25:16.637Z,100867.78
2022-12-18T05:27:45.031Z,100861.53
2022-12-18T05:30:13.042Z,100855.31
2022-12-18T05:32:39.917Z,100856.19
2022-12-18T05:35:09.621Z,100866.88
2022-12-18T05:37:42.714Z,100863.34
2022-12-18T05:40:12.887Z,100857.09
2022-12-18T05:42:39.532Z,100860.66
2022-12-18T05:45:08.119Z,100861.53
2022-12-18T05:47:35.839Z,100867.78
2022-12-18T05:50:05.286Z,100868.66
2022-12-18T05:52:31.907Z,100873.09
2022-12-18T05:55:00.696Z,100876.69
2022-12-18T05:57:30.434Z,100881.16
2022-12-18T05:59:57.000Z,100887.34
2022-12-18T06:02:26.112Z,100900.72
2022-12-18T06:04:52.806Z,100906.06
2022-12-18T06:07:22.331Z,100907.84
2022-12-18T06:09:48.754Z,100896.28
2022-12-18T06:12:16.983Z,100906.06
2022-12-18T06:14:45.125Z,100909.63
2022-12-18T06:17:11.746Z,100917.63
2022-12-18T06:19:39.276Z,100924.78
2022-12-18T06:24:52.619Z,100928.34
2022-12-18T06:27:19.669Z,100931.00
2022-12-18T06:29:47.591Z,100924.78
2022-12-18T06:32:15.791Z,100923.84
2022-12-18T06:34:59.233Z,100918.53
2022-12-18T06:37:25.966Z,100911.41
2022-12-18T06:39:55.095Z,100904.28
2022-12-18T06:42:24.924Z,100892.72
2022-12-18T06:44:52.821Z,100886.47
2022-12-18T06:47:19.684Z,100885.56
2022-12-18T06:49:46.362Z,100878.44
2022-12-18T06:52:19.114Z,100882.00
2022-12-18T06:54:45.769Z,100866.88
2022-12-18T06:57:12.517Z,100868.66
2022-12-18T06:59:39.141Z,100881.13
2022-12-18T07:02:07.517Z,100874.03
2022-12-18T07:04:34.086Z,100861.56
2022-12-18T07:07:00.606Z,100860.66
2022-12-18T07:09:29.848Z,100851.75
2022-12-18T07:11:56.320Z,100852.63
2022-12-18T07:14:23.039Z,100855.31
2022-12-18T07:16:49.613Z,100849.03
2022-12-18T07:19:17.469Z,100860.59
2022-12-18T07:21:44.089Z,100867.72
2022-12-18T07:24:10.591Z,100868.63
2022-12-18T07:26:37.105Z,100875.75
2022-12-18T07:29:04.471Z,100872.16
2022-12-18T07:31:31.130Z,100870.38
2022-12-18T07:33:59.124Z,100863.28
2022-12-18T07:36:28.357Z,100865.09
2022-12-18T07:38:55.105Z,100851.66
2022-12-18T07:41:21.894Z,100850.81
2022-12-18T07:43:48.872Z,100835.66
2022-12-18T07:46:16.626Z,100845.44
2022-12-18T07:48:45.545Z,100840.09
2022-12-18T07:51:16.812Z,100846.28
2022-12-18T07:53:45.841Z,100847.22
2022-12-18T07:56:30.968Z,100848.97
2022-12-18T07:58:59.750Z,100855.25
2022-12-18T08:01:26.902Z,100849.00
2022-12-18T08:03:53.963Z,100844.50
2022-12-18T08:06:23.887Z,100849.88
2022-12-18T08:08:55.831Z,100843.59
2022-12-18T08:11:27.260Z,100837.38
2022-12-18T08:13:58.559Z,100831.94
2022-12-18T08:16:25.847Z,100822.81
2022-12-18T08:18:54.176Z,100825.44
2022-12-18T08:21:23.216Z,100823.53
2022-12-18T08:23:51.291Z,100812.06
2022-12-18T08:26:21.007Z,100807.72
2022-12-18T08:28:50.835Z,100807.72
2022-12-18T08:31:17.486Z,100787.00
2022-12-18T08:33:46.414Z,100803.00
2022-12-18T08:36:13.511Z,100787.56
2022-12-18T08:38:40.040Z,100774.22
2022-12-18T08:41:09.652Z,100770.72
2022-12-18T08:43:38.175Z,100763.50
2022-12-18T08:46:05.523Z,100774.19
2022-12-18T08:48:32.043Z,100785.72
2022-12-18T08:50:59.791Z,100780.47
2022-12-18T08:53:29.248Z,100786.72
2022-12-18T08:55:59.280Z,100792.13
2022-12-18T08:58:25.815Z,100794.66
2022-12-18T09:01:01.114Z,100790.22
2022-12-18T09:03:27.655Z,100791.72
2022-12-18T09:05:54.365Z,100786.34
2022-12-18T09:08:20.924Z,100788.31
2022-12-18T09:10:49.864Z,100779.00
2022-12-18T09:13:17.493Z,100771.94
2022-12-18T09:15:44.850Z,100766.53
2022-12-18T09:18:13.669Z,100762.94
2022-12-18T09:20:40.235Z,100762.69
2022-12-18T09:23:07.579Z,100777.81
2022-12-18T09:25:34.634Z,100767.97
2022-12-18T09:28:01.392Z,100763.34
2022-12-18T09:30:28.503Z,100760.53
2022-12-18T09:32:55.195Z,100755.06
2022-12-18T09:35:23.039Z,100754.47
2022-12-18T09:37:50.532Z,100755.22
2022-12-18T09:40:20.423Z,100763.66
2022-12-18T09:42:52.958Z,100760.44
2022-12-18T09:45:19.990Z,100766.56
2022-12-18T09:47:49.284Z,100770.22
2022-12-18T09:50:26.564Z,100763.78
2022-12-18T09:52:57.898Z,100749.03
2022-12-18T09:55:35.168Z,100758.75
2022-12-18T09:58:08.652Z,100749.19
2022-12-18T10:00:35.701Z,100734.69
2022-12-18T10:03:09.606Z,100732.44
2022-12-18T10:05:44.021Z,100716.59
2022-12-18T10:08:16.924Z,100731.50
2022-12-18T10:10:49.583Z,100725.00
2022-12-18T10:13:25.633Z,100708.31
2022-12-18T10:16:03.406Z,100712.00
2022-12-18T10:18:45.430Z,100727.09
2022-12-18T10:21:20.249Z,100717.31
2022-12-18T10:23:58.690Z,100726.69
2022-12-18T10:26:26.052Z,100712.31
2022-12-18T10:28:54.345Z,100697.13
2022-12-18T10:31:24.964Z,100685.63
2022-12-18T10:33:53.620Z,100690.84
2022-12-18T10:36:23.857Z,100689.09
2022-12-18T10:38:50.947Z,100692.72
2022-12-18T10:41:27.517Z,100689.84
2022-12-18T10:44:13.395Z,100690.91
2022-12-18T10:46:40.144Z,100695.22
2022-12-18T10:49:19.641Z,100683.44
2022-12-18T10:51:48.060Z,100689.47
2022-12-18T10:54:17.096Z,100675.09
2022-12-18T10:56:44.463Z,100665.81
2022-12-18T10:59:14.411Z,100668.84
2022-12-18T11:01:50.930Z,100666.03
2022-12-18T11:04:21.343Z,100650.88
2022-12-18T11:06:57.715Z,100643.16
2022-12-18T11:09:28.335Z,100647.19
2022-12-18T11:11:57.365Z,100643.22
2022-12-18T11:14:26.074Z,100659.91
2022-12-18T11:19:42.538Z,100663.81
2022-12-18T11:22:21.652Z,100655.03
2022-12-18T11:25:29.521Z,100652.75
2022-12-18T11:27:48.194Z,100667.97
2022-12-18T11:30:24.334Z,100657.63
2022-12-18T11:32:54.021Z,100644.31
2022-12-18T11:35:26.288Z,100638.34
2022-12-18T11:38:03.940Z,100609.25
2022-12-18T11:40:40.855Z,100605.84
2022-12-18T11:43:12.840Z,100609.88
2022-12-18T11:45:46.943Z,100598.19
2022-12-18T11:48:19.389Z,100603.47
2022-12-18T11:50:50.813Z,100615.53
2022-12-18T11:53:19.144Z,100609.19
2022-12-18T12:26:46.518Z,100603.94
2022-12-18T12:29:31.252Z,100584.75
2022-12-18T12:32:23.491Z,100578.38
2022-12-18T12:35:02.587Z,100574.34
2022-12-18T12:37:47.234Z,100580.06
2022-12-18T12:40:51.193Z,100581.88
2022-12-18T12:43:36.924Z,100577.59
2022-12-18T12:46:07.883Z,100578.75
2022-12-18T12:48:44.243Z,100576.25
2022-12-18T12:51:35.601Z,100577.13
2022-12-18T12:54:05.227Z,100572.25
2022-12-18T12:56:41.008Z,100574.94
2022-12-18T12:59:20.274Z,100572.09
2022-12-18T13:01:58.511Z,100573.34
2022-12-18T13:04:36.334Z,100593.50
2022-12-18T13:07:13.312Z,100590.72
2022-12-18T13:10:23.499Z,100579.09
2022-12-18T13:12:55.980Z,100588.50
2022-12-18T13:15:25.131Z,100581.16
2022-12-18T13:18:05.569Z,100585.09
2022-12-18T13:20:38.343Z,100576.16
2022-12-18T13:23:21.240Z,100589.16
2022-12-18T13:25:51.058Z,100581.38
2022-12-18T13:28:21.522Z,100582.34
2022-12-18T13:30:58.640Z,100582.84
2022-12-18T13:36:30.547Z,100572.84
2022-12-18T13:39:35.316Z,100564.78
2022-12-18T13:42:38.141Z,100555.78
2022-12-18T13:45:47.339Z,100557.81
2022-12-18T13:48:19.128Z,100534.63
2022-12-18T13:51:10.828Z,100537.69
2022-12-18T13:53:43.204Z,100532.50
2022-12-18T13:56:10.229Z,100525.75
2022-12-18T13:58:45.811Z,100527.50
2022-12-18T14:01:23.345Z,100518.88
2022-12-18T14:04:10.306Z,100515.75
2022-12-18T14:06:37.400Z,100518.75
2022-12-18T14:09:04.471Z,100513.25
2022-12-18T14:11:31.638Z,100516.91
2022-12-18T14:14:00.139Z,100512.81
2022-12-18T14:16:28.560Z,100491.91
2022-12-18T14:19:01.934Z,100510.97
2022-12-18T14:21:34.262Z,100507.09
2022-12-18T14:24:13.905Z,100489.00
2022-12-18T14:26:41.492Z,100488.28
2022-12-18T14:29:27.106Z,100489.59
2022-12-18T14:32:13.321Z,100493.78
2022-12-18T14:34:43.766Z,100485.84
2022-12-18T14:37:11.751Z,100489.06
2022-12-18T14:39:38.346Z,100503.16
2022-12-18T14:42:05.406Z,100507.56
2022-12-18T14:48:23.426Z,100485.66
2022-12-18T14:50:59.895Z,100482.75
2022-12-18T14:53:35.023Z,100483.84
2022-12-18T14:56:02.288Z,100477.78
2022-12-18T14:58:29.121Z,100477.19
2022-12-18T15:00:56.160Z,100474.50
2022-12-18T15:03:24.818Z,100463.00
2022-12-18T15:05:52.733Z,100465.16
2022-12-18T15:08:35.821Z,100456.63
2022-12-18T15:11:02.928Z,100458.44
2022-12-18T15:17:20.403Z,100456.22
2022-12-18T15:20:20.807Z,100442.03
2022-12-18T15:23:40.207Z,100455.22
2022-12-18T15:26:14.858Z,100439.91
2022-12-18T15:29:23.882Z,100434.72
2022-12-18T15:35:31.854Z,100433.41
2022-12-18T15:38:16.026Z,100440.59
2022-12-18T15:41:01.001Z,100431.53
2022-12-18T15:46:37.245Z,100442.97
2022-12-18T15:49:35.638Z,100444.66
2022-12-18T15:52:04.300Z,100441.28
2022-12-18T15:54:31.128Z,100437.72
2022-12-18T15:56:57.708Z,100442.16
2022-12-18T15:59:27.925Z,100434.34
2022-12-18T16:01:54.581Z,100439.00
2022-12-18T16:04:22.609Z,100446.06
2022-12-18T16:09:35.839Z,100444.19
2022-12-18T16:12:02.504Z,100443.03
2022-12-18T16:14:34.141Z,100443.38
2022-12-18T16:17:02.760Z,100439.66
2022-12-18T16:19:29.964Z,100437.78
2022-12-18T16:21:59.026Z,100452.47
2022-12-18T16:24:27.971Z,100455.16
2022-12-18T16:26:55.287Z,100449.69
2022-12-18T16:29:25.099Z,100453.34
2022-12-18T16:31:53.340Z,100459.59
2022-12-18T16:34:26.821Z,100460.69
2022-12-18T16:36:58.982Z,100444.75
2022-12-18T16:39:30.010Z,100443.81
2022-12-18T16:41:56.724Z,100446.38
2022-12-18T16:44:24.724Z,100445.84
2022-12-18T16:46:52.710Z,100449.50
2022-12-18T16:49:20.229Z,100441.25
2022-12-18T16:51:47.858Z,100447.75
2022-12-18T16:54:18.870Z,100448.47
2022-12-18T16:56:46.413Z,100448.56
2022-12-18T16:59:13.278Z,100440.31
2022-12-18T17:01:39.924Z,100437.56
2022-12-18T17:04:09.018Z,100438.66
2022-12-18T17:06:47.534Z,100420.28
2022-12-18T17:09:15.442Z,100413.22
2022-12-18T17:11:42.841Z,100411.91
2022-12-18T17:14:11.045Z,100409.66
2022-12-18T17:16:38.211Z,100420.13
2022-12-18T17:19:12.237Z,100424.69
2022-12-18T17:21:42.625Z,100421.25
2022-12-18T17:24:09.715Z,100407.06
2022-12-18T17:26:36.904Z,100420.94
2022-12-18T17:29:05.245Z,100413.25
2022-12-18T17:31:32.215Z,100406.00
2022-12-18T17:34:06.913Z,100408.00
2022-12-18T17:36:35.061Z,100417.19
2022-12-18T17:39:10.154Z,100419.50
2022-12-18T17:41:36.659Z,100400.19
2022-12-18T17:44:05.664Z,100394.91
2022-12-18T17:46:34.201Z,100395.59
2022-12-18T17:49:02.374Z,100382.44
2022-12-18T17:51:29.716Z,100397.34
2022-12-18T17:53:57.718Z,100408.91
2022-12-18T17:56:25.337Z,100407.16
2022-12-18T17:58:52.276Z,100405.75
2022-12-18T18:01:21.649Z,100411.75
2022-12-18T18:03:51.747Z,100411.56
2022-12-18T18:06:20.405Z,100429.25
2022-12-18T18:08:47.320Z,100423.44
2022-12-18T18:11:18.384Z,100423.78
2022-12-18T18:13:46.879Z,100419.09
2022-12-18T18:16:13.579Z,100420.09
2022-12-18T18:18:40.193Z,100414.66
2022-12-18T18:21:08.880Z,100422.03
2022-12-18T18:23:39.109Z,100433.44
2022-12-18T18:26:09.744Z,100424.59
2022-12-18T18:28:38.010Z,100426.91
2022-12-18T18:31:05.863Z,100421.59
2022-12-18T18:33:33.416Z,100432.41
2022-12-18T18:35:59.982Z,100431.28
2022-12-18T18:38:29.866Z,100436.91
2022-12-18T18:40:59.965Z,100449.50
2022-12-18T18:43:27.593Z,100439.63
2022-12-18T18:46:00.833Z,100425.31
2022-12-18T18:48:41.754Z,100414.91
2022-12-18T18:51:38.360Z,100422.13
2022-12-18T18:54:24.727Z,100436.16
2022-12-18T19:27:45.152Z,100412.81
2022-12-18T19:30:14.244Z,100422.41
2022-12-18T19:32:41.526Z,100414.25
2022-12-18T19:35:09.024Z,100413.16
2022-12-18T19:37:40.929Z,100418.63
2022-12-18T19:40:12.327Z,100406.09
2022-12-18T19:42:39.448Z,100400.63
2022-12-18T19:45:08.939Z,100423.88
2022-12-18T19:47:36.063Z,100407.69
2022-12-18T19:50:02.901Z,100415.78
2022-12-18T19:52:29.604Z,100409.41
2022-12-18T19:54:56.213Z,100407.25
2022-12-18T19:57:22.767Z,100396.81
2022-12-18T19:59:49.537Z,100379.13
2022-12-18T20:02:17.781Z,100397.69
2022-12-18T20:04:44.643Z,100390.47
2022-12-18T20:07:11.164Z,100411.00
2022-12-18T20:09:39.138Z,100407.63
2022-12-18T20:12:06.739Z,100413.00
2022-12-18T20:14:33.425Z,100422.69
2022-12-18T20:17:00.404Z,100421.13
2022-12-18T20:19:28.712Z,100433.31
2022-12-18T20:21:55.611Z,100420.28
2022-12-18T20:24:22.134Z,100416.59
2022-12-18T20:26:48.858Z,100414.44
2022-12-18T20:29:16.036Z,100400.25
2022-12-18T20:31:42.575Z,100398.72
2022-12-18T20:34:10.059Z,100418.09
2022-12-18T20:36:38.794Z,100413.28
2022-12-18T20:39:07.605Z,100416.63
2022-12-18T20:41:38.154Z,100408.28
2022-12-18T20:44:23.271Z,100409.84
2022-12-18T20:46:52.788Z,100415.19
2022-12-18T20:49:19.544Z,100413.69
2022-12-18T20:51:53.088Z,100397.47
2022-12-18T20:54:20.119Z,100418.00
2022-12-18T20:56:47.228Z,100414.28
2022-12-18T20:59:14.896Z,100411.75
2022-12-18T21:01:48.067Z,100419.31
2022-12-18T21:04:16.042Z,100419.84
2022-12-18T21:06:49.480Z,100420.84
2022-12-18T21:09:20.242Z,100423.47
2022-12-18T21:11:47.131Z,100416.13
2022-12-18T21:14:16.705Z,100421.59
2022-12-18T21:16:44.593Z,100416.13
2022-12-18T21:19:11.966Z,100411.47
2022-12-18T21:21:39.225Z,100416.13
2022-12-18T21:24:06.959Z,100412.34
2022-12-18T21:26:40.442Z,100417.88
2022-12-18T21:29:15.938Z,100405.31
2022-12-18T21:31:44.720Z,100404.94
2022-12-18T21:34:15.737Z,100416.63
2022-12-18T21:36:42.391Z,100412.06
2022-12-18T21:39:10.253Z,100420.22
2022-12-18T21:41:42.095Z,100419.28
2022-12-18T21:44:12.253Z,100428.03
2022-12-18T21:46:40.816Z,100410.09
2022-12-18T21:49:09.729Z,100419.34
2022-12-18T21:51:37.929Z,100411.25
2022-12-18T21:54:05.103Z,100411.47
2022-12-18T21:56:45.252Z,100408.19
2022-12-18T21:59:14.658Z,100397.47
2022-12-18T22:01:42.399Z,100383.44
2022-12-18T22:04:12.162Z,100390.19
2022-12-18T22:06:38.810Z,100386.47
2022-12-18T22:09:05.433Z,100390.47
2022-12-18T22:11:32.068Z,100390.09
2022-12-18T22:14:03.352Z,100380.69
2022-12-18T22:16:31.534Z,100373.19
2022-12-18T22:19:00.279Z,100379.50
2022-12-18T22:21:29.549Z,100368.56
2022-12-18T22:23:58.032Z,100358.16
2022-12-18T22:26:29.466Z,100376.13
2022-12-18T22:28:58.040Z,100353.19
2022-12-18T22:31:26.215Z,100370.63
2022-12-18T22:33:53.041Z,100358.91
2022-12-18T22:36:19.681Z,100342.63
2022-12-18T22:38:51.812Z,100324.84
2022-12-18T22:41:21.440Z,100348.22
2022-12-18T22:43:48.336Z,100347.84
2022-12-18T22:46:16.744Z,100343.66
2022-12-18T22:48:44.708Z,100326.63
2022-12-18T22:51:15.271Z,100338.50
2022-12-18T22:53:42.139Z,100338.78
2022-12-18T22:56:15.721Z,100332.19
2022-12-18T22:58:49.027Z,100333.75
2022-12-18T23:01:20.350Z,100336.38
2022-12-18T23:03:51.476Z,100337.00
2022-12-18T23:06:18.858Z,100334.31
2022-12-18T23:08:46.279Z,100318.63
2022-12-18T23:11:18.817Z,100291.19
2022-12-18T23:13:46.468Z,100306.56
2022-12-18T23:16:15.079Z,100298.03
2022-12-18T23:18:42.509Z,100295.38
2022-12-18T23:21:13.441Z,100292.78
2022-12-18T23:23:41.376Z,100294.44
2022-12-18T23:26:10.781Z,100294.63
2022-12-18T23:28:40.883Z,100287.25
2022-12-18T23:31:10.659Z,100285.63
2022-12-18T23:33:38.506Z,100296.03
2022-12-18T23:36:06.392Z,100280.94
2022-12-18T23:38:40.757Z,100281.84
2022-12-18T23:41:14.025Z,100280.66
2022-12-18T23:43:43.946Z,100260.47
2022-12-18T23:46:14.602Z,100267.44
2022-12-18T23:48:42.546Z,100265.44
2022-12-18T23:51:10.889Z,100256.41
2022-12-18T23:53:38.951Z,100267.00
2022-12-18T23:56:09.935Z,100269.44
2022-12-18T23:58:38.069Z,100254.59
